createdAt,value
2023-01-25T00:02:14.384Z,103363.41
2023-01-25T00:04:41.045Z,103353.28
2023-01-25T00:07:07.604Z,103346.91
2023-01-25T00:09:34.142Z,103353.63
2023-01-25T00:12:00.785Z,103337.56
2023-01-25T00:14:27.381Z,103332.22
2023-01-25T00:16:54.087Z,103324.66
2023-01-25T00:19:20.772Z,103328.97
2023-01-25T00:21:47.461Z,103319.09
2023-01-25T00:24:14.622Z,103322.00
2023-01-25T00:26:44.073Z,103319.91
2023-01-25T00:29:14.468Z,103317.47
2023-01-25T00:31:45.362Z,103302.69
2023-01-25T00:34:24.535Z,103295.25
2023-01-25T00:36:57.938Z,103288.28
2023-01-25T00:39:26.153Z,103283.00
2023-01-25T00:41:52.661Z,103275.22
2023-01-25T00:44:19.292Z,103260.22
2023-01-25T00:46:46.679Z,103245.78
2023-01-25T00:49:22.308Z,103247.66
2023-01-25T00:51:49.512Z,103243.13
2023-01-25T00:54:16.849Z,103240.44
2023-01-25T00:56:44.971Z,103237.75
2023-01-25T00:59:12.513Z,103230.22
2023-01-25T01:01:43.009Z,103234.50
2023-01-25T01:04:10.420Z,103232.88
2023-01-25T01:06:41.507Z,103230.22
2023-01-25T01:09:12.303Z,103233.94
2023-01-25T01:11:39.027Z,103239.03
2023-01-25T01:14:05.619Z,103240.56
2023-01-25T01:16:32.622Z,103254.28
2023-01-25T01:18:59.253Z,103248.34
2023-01-25T01:21:25.913Z,103247.88
2023-01-25T01:23:54.091Z,103246.63
2023-01-25T01:26:20.729Z,103245.56
2023-01-25T01:28:47.687Z,103248.00
2023-01-25T01:31:17.365Z,103244.16
2023-01-25T01:33:56.442Z,103245.31
2023-01-25T01:36:25.937Z,103247.75
2023-01-25T01:38:53.478Z,103235.22
2023-01-25T01:41:20.532Z,103244.25
2023-01-25T01:43:47.579Z,103244.63
2023-01-25T01:46:23.357Z,103241.34
2023-01-25T01:49:04.829Z,103235.44
2023-01-25T01:52:07.837Z,103232.97
2023-01-25T01:54:41.919Z,103235.44
2023-01-25T01:57:32.421Z,103237.50
2023-01-25T02:00:04.725Z,103234.25
2023-01-25T02:02:40.460Z,103229.38
2023-01-25T02:05:11.152Z,103233.47
2023-01-25T02:07:39.113Z,103229.38
2023-01-25T02:10:09.039Z,103226.47
2023-01-25T02:12:36.877Z,103227.63
2023-01-25T02:15:04.212Z,103228.00
2023-01-25T02:17:35.589Z,103224.25
2023-01-25T02:20:07.378Z,103226.38
2023-01-25T02:22:42.337Z,103223.25
2023-01-25T02:25:10.962Z,103221.59
2023-01-25T02:27:41.272Z,103218.13
2023-01-25T02:30:09.537Z,103217.06
2023-01-25T02:32:36.077Z,103217.28
2023-01-25T02:35:04.142Z,103217.50
2023-01-25T02:37:30.916Z,103214.03
2023-01-25T02:39:57.512Z,103210.31
2023-01-25T02:42:30.735Z,103217.88
2023-01-25T02:44:58.832Z,103206.94
2023-01-25T02:47:25.448Z,103207.19
2023-01-25T02:49:52.005Z,103209.03
2023-01-25T02:52:18.566Z,103194.84
2023-01-25T02:54:45.777Z,103202.06
2023-01-25T02:57:12.404Z,103202.41
2023-01-25T02:59:43.684Z,103199.16
2023-01-25T03:02:12.075Z,103190.09
2023-01-25T03:04:38.730Z,103193.34
2023-01-25T03:07:05.550Z,103188.91
2023-01-25T03:09:32.204Z,103186.94
2023-01-25T03:11:59.054Z,103183.00
2023-01-25T03:14:25.605Z,103185.19
2023-01-25T03:16:52.118Z,103176.72
2023-01-25T03:19:21.619Z,103178.91
2023-01-25T03:21:48.306Z,103179.53
2023-01-25T03:24:15.051Z,103177.63
2023-01-25T03:27:04.437Z,103180.91
2023-01-25T03:29:40.610Z,103173.13
2023-01-25T03:32:12.157Z,103173.91
2023-01-25T03:34:38.876Z,103166.72
2023-01-25T03:37:06.095Z,103168.34
2023-01-25T03:39:34.155Z,103164.03
2023-01-25T03:42:00.713Z,103166.94
2023-01-25T03:44:27.279Z,103159.13
2023-01-25T03:46:54.053Z,103162.88
2023-01-25T03:49:21.041Z,103161.38
2023-01-25T03:51:47.810Z,103162.53
2023-01-25T03:54:15.506Z,103166.34
2023-01-25T03:56:42.043Z,103155.19
2023-01-25T03:59:14.725Z,103153.56
2023-01-25T04:01:41.516Z,103146.34
2023-01-25T04:04:08.191Z,103145.06
2023-01-25T04:06:35.839Z,103142.38
2023-01-25T04:09:02.833Z,103143.78
2023-01-25T04:11:35.245Z,103132.28
2023-01-25T04:14:02.111Z,103122.03
2023-01-25T04:16:36.169Z,103121.69
2023-01-25T04:19:21.573Z,103117.75
2023-01-25T04:21:49.241Z,103105.03
2023-01-25T04:24:18.442Z,103107.03
2023-01-25T04:26:46.248Z,103105.97
2023-01-25T04:29:13.317Z,103103.88
2023-01-25T04:31:40.382Z,103105.81
2023-01-25T04:34:07.057Z,103106.53
2023-01-25T04:36:33.802Z,103099.81
2023-01-25T04:39:00.621Z,103099.22
2023-01-25T04:41:29.648Z,103088.53
2023-01-25T04:43:58.337Z,103090.72
2023-01-25T04:46:27.299Z,103090.25
2023-01-25T04:48:54.710Z,103094.66
2023-01-25T04:51:21.305Z,103092.56
2023-01-25T04:53:47.866Z,103083.72
2023-01-25T04:56:14.586Z,103082.44
2023-01-25T04:58:47.032Z,103079.78
2023-01-25T05:01:13.782Z,103076.03
2023-01-25T05:03:40.576Z,103067.47
2023-01-25T05:06:14.848Z,103068.19
2023-01-25T05:08:41.768Z,103067.25
2023-01-25T05:11:08.541Z,103077.72
2023-01-25T05:14:01.286Z,103066.53
2023-01-25T05:16:31.444Z,103065.50
2023-01-25T05:18:58.910Z,103067.13
2023-01-25T05:21:59.598Z,103060.78
2023-01-25T05:24:34.918Z,103063.06
2023-01-25T05:27:05.318Z,103060.28
2023-01-25T05:29:50.841Z,103053.63
2023-01-25T05:32:20.717Z,103053.16
2023-01-25T05:34:48.126Z,103049.44
2023-01-25T05:37:17.608Z,103046.56
2023-01-25T05:39:46.144Z,103062.13
2023-01-25T05:42:15.107Z,103052.97
2023-01-25T05:44:42.110Z,103052.03
2023-01-25T05:47:18.320Z,103052.25
2023-01-25T05:49:45.092Z,103049.69
2023-01-25T05:52:18.108Z,103049.69
2023-01-25T05:54:44.828Z,103054.59
2023-01-25T05:57:14.255Z,103048.78
2023-01-25T05:59:41.187Z,103046.44
2023-01-25T06:02:10.006Z,103045.28
2023-01-25T06:04:37.398Z,103052.38
2023-01-25T06:07:04.226Z,103052.38
2023-01-25T06:09:32.085Z,103038.44
2023-01-25T06:11:58.803Z,103037.94
2023-01-25T06:14:25.455Z,103036.69
2023-01-25T06:16:52.543Z,103038.78
2023-01-25T06:19:37.477Z,103038.69
2023-01-25T06:22:21.381Z,103034.03
2023-01-25T06:24:47.949Z,103028.91
2023-01-25T06:27:14.488Z,103031.81
2023-01-25T06:29:41.000Z,103026.72
2023-01-25T06:32:07.656Z,103034.03
2023-01-25T06:34:34.208Z,103032.97
2023-01-25T06:37:00.848Z,103037.38
2023-01-25T06:39:27.435Z,103039.00
2023-01-25T06:41:55.053Z,103033.91
2023-01-25T06:44:21.712Z,103037.50
2023-01-25T06:46:48.380Z,103035.97
2023-01-25T06:49:15.058Z,103034.59
2023-01-25T06:51:41.620Z,103037.59
2023-01-25T06:54:08.206Z,103024.50
2023-01-25T06:56:34.900Z,103020.88
2023-01-25T06:59:01.426Z,103011.94
2023-01-25T07:01:30.358Z,103009.16
2023-01-25T07:03:58.558Z,103000.69
2023-01-25T07:06:26.248Z,103006.50
2023-01-25T07:08:52.947Z,103001.94
2023-01-25T07:11:19.617Z,103000.13
2023-01-25T07:13:47.265Z,103000.13
2023-01-25T07:16:16.576Z,103001.38
2023-01-25T07:18:43.310Z,102998.47
2023-01-25T07:21:14.143Z,102993.84
2023-01-25T07:23:41.693Z,102988.72
2023-01-25T07:26:16.618Z,102987.34
2023-01-25T07:28:43.150Z,102994.53
2023-01-25T07:31:09.822Z,102998.47
2023-01-25T07:33:36.424Z,102996.50
2023-01-25T07:36:04.721Z,102984.88
2023-01-25T07:38:31.585Z,102980.38
2023-01-25T07:40:58.103Z,102972.56
2023-01-25T07:43:25.327Z,102972.22
2023-01-25T07:45:52.800Z,102970.00
2023-01-25T07:48:20.225Z,102975.47
2023-01-25T07:50:49.722Z,102971.28
2023-01-25T07:53:17.102Z,102970.84
2023-01-25T07:55:43.785Z,102966.50
2023-01-25T07:58:11.703Z,102962.47
2023-01-25T08:00:38.375Z,102961.53
2023-01-25T08:03:07.616Z,102959.44
2023-01-25T08:05:34.171Z,102958.19
2023-01-25T08:08:00.717Z,102956.31
2023-01-25T08:10:27.270Z,102957.72
2023-01-25T08:12:53.880Z,102953.56
2023-01-25T08:15:20.534Z,102958.53
2023-01-25T08:17:47.126Z,102945.66
2023-01-25T08:20:14.043Z,102951.09
2023-01-25T08:22:40.575Z,102944.13
2023-01-25T08:25:08.067Z,102944.38
2023-01-25T08:27:34.803Z,102941.81
2023-01-25T08:30:01.457Z,102940.88
2023-01-25T08:32:28.069Z,102940.31
2023-01-25T08:34:54.659Z,102939.59
2023-01-25T08:37:21.188Z,102935.41
2023-01-25T08:39:47.724Z,102928.91
2023-01-25T08:42:14.234Z,102939.13
2023-01-25T08:44:40.852Z,102938.69
2023-01-25T08:47:07.391Z,102941.22
2023-01-25T08:49:34.929Z,102939.47
2023-01-25T08:52:01.583Z,102937.25
2023-01-25T08:54:28.311Z,102928.91
2023-01-25T08:56:54.901Z,102922.50
2023-01-25T08:59:21.480Z,102919.84
2023-01-25T09:01:48.068Z,102925.19
2023-01-25T09:04:14.805Z,102924.28
2023-01-25T09:06:41.353Z,102930.66
2023-01-25T09:09:08.596Z,102930.19
2023-01-25T09:11:37.220Z,102930.88
2023-01-25T09:14:04.661Z,102929.38
2023-01-25T09:16:31.506Z,102931.34
2023-01-25T09:19:00.844Z,102929.84
2023-01-25T09:21:28.027Z,102931.13
2023-01-25T09:24:10.011Z,102928.69
2023-01-25T09:26:39.479Z,102924.84
2023-01-25T09:29:07.922Z,102928.44
2023-01-25T09:31:35.170Z,102922.84
2023-01-25T09:34:22.333Z,102922.28
2023-01-25T09:36:48.888Z,102906.81
2023-01-25T09:39:15.455Z,102914.25
2023-01-25T09:42:00.662Z,102911.03
2023-01-25T09:44:45.358Z,102902.19
2023-01-25T09:47:31.819Z,102902.41
2023-01-25T09:50:18.814Z,102894.38
2023-01-25T09:53:11.249Z,102891.59
2023-01-25T09:55:38.162Z,102893.00
2023-01-25T09:58:04.847Z,102891.38
2023-01-25T10:00:38.200Z,102888.31
2023-01-25T10:03:25.183Z,102890.66
2023-01-25T10:05:58.217Z,102888.53
2023-01-25T10:08:31.454Z,102890.19
2023-01-25T10:11:14.137Z,102882.50
2023-01-25T10:13:40.740Z,102876.44
2023-01-25T10:16:24.629Z,102876.66
2023-01-25T10:19:18.453Z,102869.59
2023-01-25T10:22:05.865Z,102868.44
2023-01-25T10:25:00.209Z,102861.25
2023-01-25T10:27:37.953Z,102857.31
2023-01-25T10:30:27.807Z,102857.47
2023-01-25T10:32:57.760Z,102848.72
2023-01-25T10:35:36.058Z,102839.66
2023-01-25T10:38:07.526Z,102837.19
2023-01-25T10:40:44.552Z,102832.75
2023-01-25T10:43:18.540Z,102832.59
2023-01-25T10:45:45.071Z,102832.03
2023-01-25T10:48:20.793Z,102832.19
2023-01-25T10:50:50.498Z,102828.94
2023-01-25T10:53:37.627Z,102822.03
2023-01-25T10:56:10.296Z,102818.91
2023-01-25T10:58:39.205Z,102815.41
2023-01-25T11:01:08.542Z,102818.69
2023-01-25T11:03:37.912Z,102815.69
2023-01-25T11:06:05.403Z,102813.56
2023-01-25T11:08:31.860Z,102797.75
2023-01-25T11:10:59.195Z,102798.56
2023-01-25T11:13:26.806Z,102795.31
2023-01-25T11:15:56.056Z,102782.53
2023-01-25T11:18:25.359Z,102784.16
2023-01-25T11:21:18.362Z,102785.78
2023-01-25T11:24:07.067Z,102786.59
2023-01-25T11:26:36.997Z,102777.84
2023-01-25T11:29:13.899Z,102767.16
2023-01-25T11:31:46.280Z,102755.63
2023-01-25T11:34:18.900Z,102754.09
2023-01-25T11:37:08.909Z,102758.38
2023-01-25T11:39:44.537Z,102750.28
2023-01-25T11:42:26.593Z,102735.63
2023-01-25T11:44:59.615Z,102730.38
2023-01-25T11:47:52.711Z,102722.44
2023-01-25T11:50:39.317Z,102719.84
2023-01-25T11:53:24.356Z,102722.25
2023-01-25T11:56:15.308Z,102704.13
2023-01-25T11:58:51.516Z,102693.91
2023-01-25T12:01:31.239Z,102695.28
2023-01-25T12:04:35.553Z,102693.13
2023-01-25T12:07:04.214Z,102691.00
2023-01-25T12:09:47.134Z,102682.81
2023-01-25T12:12:25.329Z,102675.28
2023-01-25T12:15:21.107Z,102666.03
2023-01-25T12:17:58.180Z,102660.22
2023-01-25T12:20:27.317Z,102652.91
2023-01-25T12:23:11.333Z,102643.84
2023-01-25T12:26:02.171Z,102626.50
2023-01-25T12:28:41.038Z,102627.16
2023-01-25T12:31:22.401Z,102626.84
2023-01-25T12:34:03.667Z,102626.84
2023-01-25T12:36:38.539Z,102625.47
2023-01-25T12:39:10.667Z,102619.06
2023-01-25T12:41:50.405Z,102619.88
2023-01-25T12:44:27.470Z,102611.72
2023-01-25T12:47:04.788Z,102612.28
2023-01-25T12:49:38.518Z,102608.69
2023-01-25T12:52:20.648Z,102603.69
2023-01-25T12:54:47.755Z,102596.72
2023-01-25T12:57:32.961Z,102590.88
2023-01-25T13:00:09.967Z,102582.97
2023-01-25T13:02:50.219Z,102583.28
2023-01-25T13:05:29.992Z,102582.28
2023-01-25T13:08:07.325Z,102580.44
2023-01-25T13:10:40.125Z,102589.16
2023-01-25T13:13:27.371Z,102591.38
2023-01-25T13:15:55.136Z,102582.47
2023-01-25T13:18:24.734Z,102581.19
2023-01-25T13:20:53.726Z,102578.84
2023-01-25T13:23:33.678Z,102581.00
2023-01-25T13:26:22.208Z,102574.66
2023-01-25T13:28:50.039Z,102567.06
2023-01-25T13:31:51.490Z,102562.13
2023-01-25T13:34:36.349Z,102556.88
2023-01-25T13:37:13.368Z,102555.97
2023-01-25T13:39:48.088Z,102553.38
2023-01-25T13:42:23.452Z,102548.13
2023-01-25T13:44:53.517Z,102536.47
2023-01-25T13:47:23.334Z,102535.50
2023-01-25T13:50:09.587Z,102531.53
2023-01-25T13:52:37.210Z,102529.19
2023-01-25T13:55:17.112Z,102517.94
2023-01-25T13:57:44.055Z,102524.44
2023-01-25T14:00:16.793Z,102513.25
2023-01-25T14:02:51.880Z,102521.88
2023-01-25T14:05:23.415Z,102525.06
2023-01-25T14:07:51.714Z,102512.19
2023-01-25T14:10:23.496Z,102509.44
2023-01-25T14:12:51.391Z,102512.84
2023-01-25T14:15:24.609Z,102495.50
2023-01-25T14:18:24.645Z,102499.31
2023-01-25T14:20:51.653Z,102503.22
2023-01-25T14:23:26.395Z,102503.53
2023-01-25T14:25:54.104Z,102488.72
2023-01-25T14:28:21.420Z,102488.72
2023-01-25T14:30:52.960Z,102500.69
2023-01-25T14:33:30.179Z,102489.47
2023-01-25T14:36:24.555Z,102485.34
2023-01-25T14:38:51.735Z,102484.28
2023-01-25T14:41:48.823Z,102488.56
2023-01-25T14:44:26.278Z,102478.09
2023-01-25T14:47:45.227Z,102467.66
2023-01-25T14:50:36.684Z,102461.28
2023-01-25T14:53:19.993Z,102455.69
2023-01-25T14:55:47.321Z,102454.06
2023-01-25T14:58:22.246Z,102453.00
2023-01-25T15:01:02.005Z,102452.28
2023-01-25T15:03:29.691Z,102455.28
2023-01-25T15:05:58.377Z,102449.34
2023-01-25T15:08:39.247Z,102431.94
2023-01-25T15:11:25.016Z,102430.56
2023-01-25T15:14:01.889Z,102425.50
2023-01-25T15:16:34.793Z,102432.38
2023-01-25T15:19:01.463Z,102427.34
2023-01-25T15:21:32.102Z,102418.84
2023-01-25T15:24:06.534Z,102427.19
2023-01-25T15:26:34.789Z,102417.28
2023-01-25T15:29:05.208Z,102417.97
2023-01-25T15:31:36.989Z,102416.13
2023-01-25T15:34:04.265Z,102419.34
2023-01-25T15:36:32.141Z,102412.63
2023-01-25T15:38:58.931Z,102421.69
2023-01-25T15:41:25.541Z,102416.84
2023-01-25T15:43:52.615Z,102405.59
2023-01-25T15:46:27.017Z,102401.78
2023-01-25T15:48:53.771Z,102406.91
2023-01-25T15:51:20.772Z,102408.63
2023-01-25T15:53:47.811Z,102409.72
2023-01-25T15:56:29.132Z,102389.50
2023-01-25T15:58:59.249Z,102391.09
2023-01-25T16:01:27.749Z,102399.38
2023-01-25T16:03:58.844Z,102403.09
2023-01-25T16:06:45.382Z,102389.53
2023-01-25T16:09:26.994Z,102379.88
2023-01-25T16:11:55.270Z,102370.09
2023-01-25T16:14:23.746Z,102367.19
2023-01-25T16:16:51.979Z,102365.59
2023-01-25T16:19:21.987Z,102362.34
2023-01-25T16:21:49.224Z,102371.28
2023-01-25T16:24:16.180Z,102367.41
2023-01-25T16:26:48.817Z,102363.44
2023-01-25T16:29:15.464Z,102346.66
2023-01-25T16:31:42.409Z,102346.44
2023-01-25T16:34:09.436Z,102352.16
2023-01-25T16:36:37.131Z,102350.16
2023-01-25T16:39:10.496Z,102353.69
2023-01-25T16:41:37.353Z,102343.13
2023-01-25T16:44:03.990Z,102335.38
2023-01-25T16:46:30.581Z,102333.91
2023-01-25T16:48:58.837Z,102332.16
2023-01-25T16:51:28.076Z,102332.31
2023-01-25T16:53:56.617Z,102332.34
2023-01-25T16:56:25.420Z,102319.16
2023-01-25T16:58:53.419Z,102310.44
2023-01-25T17:01:21.187Z,102310.16
2023-01-25T17:03:48.034Z,102301.66
2023-01-25T17:06:20.578Z,102297.47
2023-01-25T17:08:47.912Z,102295.34
2023-01-25T17:11:14.904Z,102300.97
2023-01-25T17:13:41.624Z,102305.19
2023-01-25T17:16:08.235Z,102310.88
2023-01-25T17:18:34.868Z,102300.19
2023-01-25T17:21:04.084Z,102302.13
2023-01-25T17:23:32.233Z,102289.31
2023-01-25T17:25:58.840Z,102286.34
2023-01-25T17:28:25.431Z,102285.78
2023-01-25T17:30:54.293Z,102277.13
2023-01-25T17:33:21.087Z,102278.19
2023-01-25T17:35:47.632Z,102280.06
2023-01-25T17:38:14.454Z,102276.09
2023-01-25T17:40:41.078Z,102278.19
2023-01-25T17:43:07.636Z,102275.72
2023-01-25T17:45:38.479Z,102264.28
2023-01-25T17:48:06.833Z,102262.69
2023-01-25T17:50:33.580Z,102267.19
2023-01-25T17:53:00.211Z,102263.47
2023-01-25T17:55:26.733Z,102251.19
2023-01-25T17:57:53.281Z,102252.53
2023-01-25T18:00:20.154Z,102252.72
2023-01-25T18:02:46.826Z,102255.97
2023-01-25T18:05:14.439Z,102246.06
2023-01-25T18:07:41.684Z,102239.44
2023-01-25T18:10:08.957Z,102234.41
2023-01-25T18:12:35.697Z,102244.06
2023-01-25T18:15:02.528Z,102243.47
2023-01-25T18:17:29.134Z,102241.31
2023-01-25T18:19:56.955Z,102233.03
2023-01-25T18:22:23.719Z,102237.75
2023-01-25T18:24:50.925Z,102230.00
2023-01-25T18:27:20.276Z,102227.28
2023-01-25T18:30:12.918Z,102236.78
2023-01-25T18:32:39.496Z,102231.72
2023-01-25T18:35:06.137Z,102233.41
2023-01-25T18:37:39.511Z,102231.88
2023-01-25T18:40:07.559Z,102234.41
2023-01-25T18:42:34.165Z,102231.47
2023-01-25T18:45:01.637Z,102241.09
2023-01-25T18:47:28.931Z,102239.38
2023-01-25T18:49:55.802Z,102228.00
2023-01-25T18:52:23.303Z,102218.47
2023-01-25T18:54:50.238Z,102219.38
2023-01-25T18:57:17.268Z,102221.78
2023-01-25T18:59:43.926Z,102214.03
2023-01-25T19:02:12.515Z,102209.72
2023-01-25T19:04:39.183Z,102202.47
2023-01-25T19:07:05.825Z,102190.34
2023-01-25T19:09:32.461Z,102185.19
2023-01-25T19:11:59.458Z,102180.59
2023-01-25T19:14:26.121Z,102180.28
2023-01-25T19:16:52.662Z,102175.66
2023-01-25T19:19:20.901Z,102175.19
2023-01-25T19:21:47.800Z,102172.66
2023-01-25T19:24:18.012Z,102179.34
2023-01-25T19:26:45.720Z,102175.63
2023-01-25T19:29:13.770Z,102176.72
2023-01-25T19:31:40.323Z,102166.94
2023-01-25T19:34:07.900Z,102164.03
2023-01-25T19:36:37.256Z,102158.19
2023-01-25T19:39:05.578Z,102148.88
2023-01-25T19:41:33.410Z,102146.50
2023-01-25T19:44:01.723Z,102152.66
2023-01-25T19:46:30.708Z,102148.16
2023-01-25T19:48:58.512Z,102144.16
2023-01-25T19:51:30.517Z,102131.72
2023-01-25T19:54:05.123Z,102140.56
2023-01-25T19:56:35.533Z,102134.47
2023-01-25T19:59:04.168Z,102130.94
2023-01-25T20:01:30.976Z,102119.72
2023-01-25T20:03:58.437Z,102107.13
2023-01-25T20:06:26.314Z,102100.41
2023-01-25T20:08:53.358Z,102106.19
2023-01-25T20:11:22.652Z,102106.50
2023-01-25T20:13:51.111Z,102106.69
2023-01-25T20:16:18.673Z,102106.38
2023-01-25T20:18:46.303Z,102103.34
2023-01-25T20:21:15.343Z,102105.25
2023-01-25T20:23:44.510Z,102101.78
2023-01-25T20:26:19.638Z,102097.59
2023-01-25T20:28:48.287Z,102098.19
2023-01-25T20:31:20.975Z,102097.19
2023-01-25T20:33:48.123Z,102096.97
2023-01-25T20:36:14.783Z,102087.66
2023-01-25T20:38:41.533Z,102093.28
2023-01-25T20:41:10.060Z,102097.75
2023-01-25T20:43:36.606Z,102095.84
2023-01-25T20:46:03.350Z,102089.13
2023-01-25T20:48:36.264Z,102088.38
2023-01-25T20:51:12.944Z,102094.59
2023-01-25T20:53:40.882Z,102086.34
2023-01-25T20:56:10.710Z,102085.03
2023-01-25T20:58:38.499Z,102082.09
2023-01-25T21:01:13.689Z,102082.69
2023-01-25T21:03:40.391Z,102093.84
2023-01-25T21:06:07.269Z,102086.00
2023-01-25T21:08:33.826Z,102086.84
2023-01-25T21:11:00.533Z,102088.75
2023-01-25T21:13:28.631Z,102077.59
2023-01-25T21:16:11.413Z,102080.78
2023-01-25T21:18:43.154Z,102079.19
2023-01-25T21:21:15.360Z,102079.50
2023-01-25T21:23:44.795Z,102087.25
2023-01-25T21:26:17.502Z,102069.13
2023-01-25T21:28:44.086Z,102056.53
2023-01-25T21:31:16.387Z,102056.72
2023-01-25T21:33:43.234Z,102057.72
2023-01-25T21:36:14.272Z,102055.94
2023-01-25T21:38:44.553Z,102049.19
2023-01-25T21:41:19.950Z,102043.66
2023-01-25T21:44:06.112Z,102039.41
2023-01-25T21:46:33.205Z,102035.38
2023-01-25T21:49:20.541Z,102034.59
2023-01-25T21:51:49.609Z,102038.88
2023-01-25T21:54:18.563Z,102032.41
2023-01-25T21:56:46.073Z,102028.44
2023-01-25T21:59:13.076Z,102035.38
2023-01-25T22:01:39.697Z,102037.50
2023-01-25T22:04:06.448Z,102040.72
2023-01-25T22:06:33.292Z,102041.53
2023-01-25T22:08:59.896Z,102031.97
2023-01-25T22:11:26.472Z,102026.63
2023-01-25T22:13:54.015Z,102027.94
2023-01-25T22:16:21.382Z,102028.25
2023-01-25T22:18:48.424Z,102030.09
2023-01-25T22:21:18.896Z,102021.31
2023-01-25T22:23:45.584Z,102021.00
2023-01-25T22:26:17.578Z,102015.97
2023-01-25T22:28:59.934Z,102012.19
2023-01-25T22:31:28.995Z,102008.69
2023-01-25T22:33:56.402Z,102002.56
2023-01-25T22:36:26.669Z,102007.09
2023-01-25T22:38:56.371Z,102001.22
2023-01-25T22:41:25.427Z,102000.16
2023-01-25T22:43:52.647Z,101999.66
2023-01-25T22:46:21.720Z,101998.03
2023-01-25T22:48:48.288Z,101993.22
2023-01-25T22:51:18.950Z,102000.16
2023-01-25T22:53:45.664Z,101998.78
2023-01-25T22:56:15.009Z,101988.13
2023-01-25T22:58:42.917Z,101990.78
2023-01-25T23:01:11.647Z,101992.16
2023-01-25T23:03:38.663Z,101991.38
2023-01-25T23:06:07.965Z,101982.59
2023-01-25T23:08:36.406Z,101980.72
2023-01-25T23:11:05.044Z,101980.75
2023-01-25T23:13:31.856Z,101981.81
2023-01-25T23:16:03.529Z,101978.81
2023-01-25T23:18:49.171Z,101964.97
2023-01-25T23:21:16.933Z,101970.56
2023-01-25T23:23:43.450Z,101967.63
2023-01-25T23:26:10.612Z,101962.59
2023-01-25T23:28:37.541Z,101958.28
2023-01-25T23:31:17.835Z,101964.44
2023-01-25T23:33:52.669Z,101963.91
2023-01-25T23:36:21.860Z,101959.63
2023-01-25T23:38:49.156Z,101955.59
2023-01-25T23:41:16.719Z,101954.25
2023-01-25T23:43:43.650Z,101948.91
2023-01-25T23:46:10.441Z,101945.97
2023-01-25T23:48:37.073Z,101950.53
2023-01-25T23:51:03.782Z,101950.75
2023-01-25T23:53:31.577Z,101946.78
2023-01-25T23:56:00.702Z,101936.66
2023-01-25T23:58:27.914Z,101938.25
